sensor_id;sensor_type;location;lat;lon;timestamp;P1;durP1;ratioP1;P2;durP2;ratioP2
6828;SDS011;17930;48.592;8.868;2023-03-01T00:01:26;14.77;;;7.93;;
6828;SDS011;17930;48.592;8.868;2023-03-01T00:03:54;18.65;;;9.23;;
6828;SDS011;17930;48.592;8.868;2023-03-01T00:06:21;15.77;;;8.27;;
6828;SDS011;17930;48.592;8.868;2023-03-01T00:08:48;16.48;;;8.43;;
6828;SDS011;17930;48.592;8.868;2023-03-01T00:11:16;16.17;;;8.15;;
6828;SDS011;17930;48.592;8.868;2023-03-01T00:13:45;17.15;;;9.35;;
6828;SDS011;17930;48.592;8.868;2023-03-01T00:16:14;15.95;;;8.57;;
6828;SDS011;17930;48.592;8.868;2023-03-01T00:18:43;19.42;;;8.90;;
6828;SDS011;17930;48.592;8.868;2023-03-01T00:21:10;17.42;;;8.73;;
6828;SDS011;17930;48.592;8.868;2023-03-01T00:23:37;14.90;;;7.75;;
6828;SDS011;17930;48.592;8.868;2023-03-01T00:26:06;16.52;;;8.65;;
6828;SDS011;17930;48.592;8.868;2023-03-01T00:28:35;16.63;;;8.88;;
6828;SDS011;17930;48.592;8.868;2023-03-01T00:31:05;15.52;;;8.48;;
6828;SDS011;17930;48.592;8.868;2023-03-01T00:33:33;16.35;;;8.27;;
6828;SDS011;17930;48.592;8.868;2023-03-01T00:36:01;14.90;;;8.07;;
6828;SDS011;17930;48.592;8.868;2023-03-01T00:38:29;16.95;;;8.27;;
6828;SDS011;17930;48.592;8.868;2023-03-01T00:40:56;17.85;;;8.32;;
6828;SDS011;17930;48.592;8.868;2023-03-01T00:43:29;15.80;;;8.48;;
6828;SDS011;17930;48.592;8.868;2023-03-01T00:45:56;18.25;;;8.80;;
6828;SDS011;17930;48.592;8.868;2023-03-01T00:48:27;18.25;;;9.35;;
6828;SDS011;17930;48.592;8.868;2023-03-01T00:50:53;16.48;;;8.40;;
6828;SDS011;17930;48.592;8.868;2023-03-01T00:53:21;15.90;;;9.07;;
6828;SDS011;17930;48.592;8.868;2023-03-01T00:55:48;17.65;;;8.38;;
6828;SDS011;17930;48.592;8.868;2023-03-01T00:58:15;15.55;;;8.50;;
6828;SDS011;17930;48.592;8.868;2023-03-01T01:00:41;14.63;;;8.35;;
6828;SDS011;17930;48.592;8.868;2023-03-01T01:03:08;16.27;;;8.43;;
6828;SDS011;17930;48.592;8.868;2023-03-01T01:05:35;14.50;;;9.18;;
6828;SDS011;17930;48.592;8.868;2023-03-01T01:08:02;18.83;;;8.77;;
6828;SDS011;17930;48.592;8.868;2023-03-01T01:10:34;14.48;;;8.40;;
6828;SDS011;17930;48.592;8.868;2023-03-01T01:13:01;20.27;;;8.25;;
6828;SDS011;17930;48.592;8.868;2023-03-01T01:15:28;18.35;;;8.98;;
6828;SDS011;17930;48.592;8.868;2023-03-01T01:17:55;16.02;;;8.57;;
6828;SDS011;17930;48.592;8.868;2023-03-01T01:20:22;16.23;;;7.97;;
6828;SDS011;17930;48.592;8.868;2023-03-01T01:22:48;17.33;;;8.43;;
6828;SDS011;17930;48.592;8.868;2023-03-01T01:25:16;15.60;;;9.05;;
6828;SDS011;17930;48.592;8.868;2023-03-01T01:27:44;16.92;;;8.50;;
6828;SDS011;17930;48.592;8.868;2023-03-01T01:30:11;18.10;;;9.05;;
6828;SDS011;17930;48.592;8.868;2023-03-01T01:32:39;17.40;;;8.77;;
6828;SDS011;17930;48.592;8.868;2023-03-01T01:35:06;15.63;;;9.00;;
6828;SDS011;17930;48.592;8.868;2023-03-01T01:37:33;17.45;;;9.00;;
6828;SDS011;17930;48.592;8.868;2023-03-01T01:39:59;16.05;;;8.57;;
6828;SDS011;17930;48.592;8.868;2023-03-01T01:42:29;18.13;;;9.00;;
6828;SDS011;17930;48.592;8.868;2023-03-01T01:47:56;16.48;;;7.97;;
6828;SDS011;17930;48.592;8.868;2023-03-01T01:50:26;18.70;;;8.40;;
6828;SDS011;17930;48.592;8.868;2023-03-01T01:53:05;17.67;;;8.35;;
6828;SDS011;17930;48.592;8.868;2023-03-01T01:55:35;18.60;;;9.25;;
6828;SDS011;17930;48.592;8.868;2023-03-01T01:58:06;21.40;;;8.80;;
6828;SDS011;17930;48.592;8.868;2023-03-01T02:00:37;17.95;;;9.85;;
6828;SDS011;17930;48.592;8.868;2023-03-01T02:03:04;19.25;;;9.70;;
6828;SDS011;17930;48.592;8.868;2023-03-01T02:05:36;19.40;;;9.45;;
6828;SDS011;17930;48.592;8.868;2023-03-01T02:08:08;15.05;;;8.32;;
6828;SDS011;17930;48.592;8.868;2023-03-01T02:10:37;25.90;;;8.60;;
6828;SDS011;17930;48.592;8.868;2023-03-01T02:13:04;20.23;;;9.45;;
6828;SDS011;17930;48.592;8.868;2023-03-01T02:15:32;18.90;;;9.02;;
6828;SDS011;17930;48.592;8.868;2023-03-01T02:18:01;17.30;;;9.15;;
6828;SDS011;17930;48.592;8.868;2023-03-01T02:20:31;17.10;;;8.77;;
6828;SDS011;17930;48.592;8.868;2023-03-01T02:23:01;14.88;;;8.23;;
6828;SDS011;17930;48.592;8.868;2023-03-01T02:25:32;20.67;;;10.77;;
6828;SDS011;17930;48.592;8.868;2023-03-01T02:28:04;17.95;;;8.98;;
6828;SDS011;17930;48.592;8.868;2023-03-01T02:30:35;17.75;;;8.82;;
6828;SDS011;17930;48.592;8.868;2023-03-01T02:33:22;16.38;;;9.32;;
6828;SDS011;17930;48.592;8.868;2023-03-01T02:35:49;19.75;;;9.95;;
6828;SDS011;17930;48.592;8.868;2023-03-01T02:38:16;17.25;;;9.15;;
6828;SDS011;17930;48.592;8.868;2023-03-01T02:40:43;21.98;;;9.95;;
6828;SDS011;17930;48.592;8.868;2023-03-01T02:43:10;17.42;;;9.90;;
6828;SDS011;17930;48.592;8.868;2023-03-01T02:45:47;20.88;;;9.48;;
6828;SDS011;17930;48.592;8.868;2023-03-01T02:48:15;18.20;;;9.80;;
6828;SDS011;17930;48.592;8.868;2023-03-01T02:50:50;17.42;;;9.52;;
6828;SDS011;17930;48.592;8.868;2023-03-01T02:53:23;17.30;;;9.45;;
6828;SDS011;17930;48.592;8.868;2023-03-01T02:56:00;20.42;;;9.30;;
6828;SDS011;17930;48.592;8.868;2023-03-01T02:58:27;17.92;;;9.32;;
6828;SDS011;17930;48.592;8.868;2023-03-01T03:00:55;20.17;;;9.63;;
6828;SDS011;17930;48.592;8.868;2023-03-01T03:03:22;21.75;;;10.43;;
6828;SDS011;17930;48.592;8.868;2023-03-01T03:05:49;17.00;;;9.25;;
6828;SDS011;17930;48.592;8.868;2023-03-01T03:08:16;21.25;;;8.77;;
6828;SDS011;17930;48.592;8.868;2023-03-01T03:10:48;18.35;;;9.88;;
6828;SDS011;17930;48.592;8.868;2023-03-01T03:13:15;14.82;;;7.65;;
6828;SDS011;17930;48.592;8.868;2023-03-01T03:15:42;20.00;;;9.68;;
6828;SDS011;17930;48.592;8.868;2023-03-01T03:18:11;19.92;;;9.68;;
6828;SDS011;17930;48.592;8.868;2023-03-01T03:20:39;15.55;;;8.75;;
6828;SDS011;17930;48.592;8.868;2023-03-01T03:23:08;17.75;;;9.57;;
6828;SDS011;17930;48.592;8.868;2023-03-01T03:25:35;17.70;;;9.65;;
6828;SDS011;17930;48.592;8.868;2023-03-01T03:28:03;18.15;;;8.50;;
6828;SDS011;17930;48.592;8.868;2023-03-01T03:30:35;17.88;;;10.05;;
6828;SDS011;17930;48.592;8.868;2023-03-01T03:33:04;19.88;;;9.20;;
6828;SDS011;17930;48.592;8.868;2023-03-01T03:35:37;16.92;;;9.13;;
6828;SDS011;17930;48.592;8.868;2023-03-01T03:38:07;18.85;;;9.35;;
6828;SDS011;17930;48.592;8.868;2023-03-01T03:40:41;20.65;;;10.25;;
6828;SDS011;17930;48.592;8.868;2023-03-01T03:43:12;16.92;;;9.40;;
6828;SDS011;17930;48.592;8.868;2023-03-01T03:45:40;18.05;;;8.88;;
6828;SDS011;17930;48.592;8.868;2023-03-01T03:48:07;22.50;;;9.75;;
6828;SDS011;17930;48.592;8.868;2023-03-01T03:50:37;18.65;;;9.57;;
6828;SDS011;17930;48.592;8.868;2023-03-01T03:53:07;17.08;;;9.35;;
6828;SDS011;17930;48.592;8.868;2023-03-01T03:55:36;19.27;;;9.20;;
6828;SDS011;17930;48.592;8.868;2023-03-01T03:58:04;19.63;;;9.38;;
6828;SDS011;17930;48.592;8.868;2023-03-01T04:00:33;21.30;;;9.80;;
6828;SDS011;17930;48.592;8.868;2023-03-01T04:03:01;18.85;;;9.65;;
6828;SDS011;17930;48.592;8.868;2023-03-01T04:05:28;14.98;;;9.07;;
6828;SDS011;17930;48.592;8.868;2023-03-01T04:07:57;16.98;;;9.27;;
6828;SDS011;17930;48.592;8.868;2023-03-01T04:10:33;20.05;;;9.95;;
6828;SDS011;17930;48.592;8.868;2023-03-01T04:13:02;15.75;;;9.65;;
6828;SDS011;17930;48.592;8.868;2023-03-01T04:15:29;19.52;;;9.93;;
6828;SDS011;17930;48.592;8.868;2023-03-01T04:17:58;15.48;;;8.60;;
6828;SDS011;17930;48.592;8.868;2023-03-01T04:20:26;17.48;;;9.70;;
6828;SDS011;17930;48.592;8.868;2023-03-01T04:22:58;18.20;;;9.90;;
6828;SDS011;17930;48.592;8.868;2023-03-01T04:25:33;18.67;;;9.50;;
6828;SDS011;17930;48.592;8.868;2023-03-01T04:28:00;20.67;;;10.30;;
6828;SDS011;17930;48.592;8.868;2023-03-01T04:30:26;20.67;;;10.38;;
6828;SDS011;17930;48.592;8.868;2023-03-01T04:32:53;19.95;;;9.63;;
6828;SDS011;17930;48.592;8.868;2023-03-01T04:35:20;20.55;;;10.10;;
6828;SDS011;17930;48.592;8.868;2023-03-01T04:37:47;17.92;;;9.57;;
6828;SDS011;17930;48.592;8.868;2023-03-01T04:40:15;18.05;;;9.45;;
6828;SDS011;17930;48.592;8.868;2023-03-01T04:42:42;19.83;;;9.88;;
6828;SDS011;17930;48.592;8.868;2023-03-01T04:45:09;18.90;;;9.35;;
6828;SDS011;17930;48.592;8.868;2023-03-01T04:47:38;20.52;;;10.18;;
6828;SDS011;17930;48.592;8.868;2023-03-01T04:50:06;19.60;;;10.80;;
6828;SDS011;17930;48.592;8.868;2023-03-01T04:52:34;18.02;;;9.88;;
6828;SDS011;17930;48.592;8.868;2023-03-01T04:55:00;20.00;;;9.80;;
6828;SDS011;17930;48.592;8.868;2023-03-01T04:57:30;21.05;;;10.38;;
6828;SDS011;17930;48.592;8.868;2023-03-01T04:59:57;21.58;;;10.20;;
6828;SDS011;17930;48.592;8.868;2023-03-01T05:02:24;21.35;;;10.68;;
6828;SDS011;17930;48.592;8.868;2023-03-01T05:04:51;20.60;;;10.70;;
6828;SDS011;17930;48.592;8.868;2023-03-01T05:07:18;23.35;;;11.10;;
6828;SDS011;17930;48.592;8.868;2023-03-01T05:09:45;21.80;;;10.68;;
6828;SDS011;17930;48.592;8.868;2023-03-01T05:12:12;20.52;;;10.85;;
6828;SDS011;17930;48.592;8.868;2023-03-01T05:14:40;20.48;;;10.60;;
6828;SDS011;17930;48.592;8.868;2023-03-01T05:17:07;18.73;;;10.18;;
6828;SDS011;17930;48.592;8.868;2023-03-01T05:19:34;22.35;;;11.00;;
6828;SDS011;17930;48.592;8.868;2023-03-01T05:22:01;19.95;;;9.75;;
6828;SDS011;17930;48.592;8.868;2023-03-01T05:24:29;21.02;;;10.52;;
6828;SDS011;17930;48.592;8.868;2023-03-01T05:26:57;19.55;;;10.38;;
6828;SDS011;17930;48.592;8.868;2023-03-01T05:29:25;17.58;;;9.77;;
6828;SDS011;17930;48.592;8.868;2023-03-01T05:31:55;23.52;;;10.35;;
6828;SDS011;17930;48.592;8.868;2023-03-01T05:34:23;22.15;;;10.02;;
6828;SDS011;17930;48.592;8.868;2023-03-01T05:36:56;21.50;;;10.43;;
6828;SDS011;17930;48.592;8.868;2023-03-01T05:39:35;17.77;;;10.32;;
6828;SDS011;17930;48.592;8.868;2023-03-01T05:42:03;18.67;;;9.75;;
6828;SDS011;17930;48.592;8.868;2023-03-01T05:44:29;20.55;;;10.93;;
6828;SDS011;17930;48.592;8.868;2023-03-01T05:47:00;19.00;;;10.55;;
6828;SDS011;17930;48.592;8.868;2023-03-01T05:49:29;16.67;;;10.15;;
6828;SDS011;17930;48.592;8.868;2023-03-01T05:51:58;21.02;;;10.25;;
6828;SDS011;17930;48.592;8.868;2023-03-01T05:54:24;20.95;;;10.82;;
6828;SDS011;17930;48.592;8.868;2023-03-01T05:56:51;17.80;;;9.75;;
6828;SDS011;17930;48.592;8.868;2023-03-01T05:59:17;19.45;;;9.35;;
6828;SDS011;17930;48.592;8.868;2023-03-01T06:01:44;21.02;;;11.00;;
6828;SDS011;17930;48.592;8.868;2023-03-01T06:04:12;20.50;;;10.43;;
6828;SDS011;17930;48.592;8.868;2023-03-01T06:06:39;23.20;;;11.20;;
6828;SDS011;17930;48.592;8.868;2023-03-01T06:09:06;20.90;;;11.15;;
6828;SDS011;17930;48.592;8.868;2023-03-01T06:11:35;23.83;;;11.38;;
6828;SDS011;17930;48.592;8.868;2023-03-01T06:14:01;17.70;;;10.25;;
6828;SDS011;17930;48.592;8.868;2023-03-01T06:16:28;27.15;;;10.80;;
6828;SDS011;17930;48.592;8.868;2023-03-01T06:18:55;22.92;;;10.48;;
6828;SDS011;17930;48.592;8.868;2023-03-01T06:21:22;22.92;;;10.55;;
6828;SDS011;17930;48.592;8.868;2023-03-01T06:23:49;19.65;;;10.75;;
6828;SDS011;17930;48.592;8.868;2023-03-01T06:26:17;20.05;;;10.50;;
6828;SDS011;17930;48.592;8.868;2023-03-01T06:28:43;24.70;;;11.00;;
6828;SDS011;17930;48.592;8.868;2023-03-01T06:31:11;20.95;;;10.63;;
6828;SDS011;17930;48.592;8.868;2023-03-01T06:33:37;23.40;;;10.35;;
6828;SDS011;17930;48.592;8.868;2023-03-01T06:36:04;21.05;;;10.48;;
6828;SDS011;17930;48.592;8.868;2023-03-01T06:38:33;23.67;;;12.18;;
6828;SDS011;17930;48.592;8.868;2023-03-01T06:41:00;20.88;;;11.00;;
6828;SDS011;17930;48.592;8.868;2023-03-01T06:43:27;20.27;;;11.35;;
6828;SDS011;17930;48.592;8.868;2023-03-01T06:45:53;19.98;;;10.80;;
6828;SDS011;17930;48.592;8.868;2023-03-01T06:48:20;19.75;;;10.02;;
6828;SDS011;17930;48.592;8.868;2023-03-01T06:50:46;22.08;;;10.55;;
6828;SDS011;17930;48.592;8.868;2023-03-01T06:53:13;20.45;;;10.68;;
6828;SDS011;17930;48.592;8.868;2023-03-01T06:55:41;22.33;;;11.13;;
6828;SDS011;17930;48.592;8.868;2023-03-01T06:58:08;23.67;;;11.10;;
6828;SDS011;17930;48.592;8.868;2023-03-01T07:00:36;24.33;;;11.07;;
6828;SDS011;17930;48.592;8.868;2023-03-01T07:03:02;22.10;;;11.27;;
6828;SDS011;17930;48.592;8.868;2023-03-01T07:05:29;22.52;;;11.07;;
6828;SDS011;17930;48.592;8.868;2023-03-01T07:07:56;20.15;;;11.00;;
6828;SDS011;17930;48.592;8.868;2023-03-01T07:10:23;20.85;;;11.02;;
6828;SDS011;17930;48.592;8.868;2023-03-01T07:12:52;18.58;;;10.82;;
6828;SDS011;17930;48.592;8.868;2023-03-01T07:15:20;19.73;;;10.45;;
6828;SDS011;17930;48.592;8.868;2023-03-01T07:17:47;21.38;;;10.77;;
6828;SDS011;17930;48.592;8.868;2023-03-01T07:20:16;21.15;;;10.48;;
6828;SDS011;17930;48.592;8.868;2023-03-01T07:22:43;19.40;;;10.63;;
6828;SDS011;17930;48.592;8.868;2023-03-01T07:25:10;17.92;;;10.73;;
6828;SDS011;17930;48.592;8.868;2023-03-01T07:27:37;22.50;;;10.80;;
6828;SDS011;17930;48.592;8.868;2023-03-01T07:30:05;20.73;;;9.82;;
6828;SDS011;17930;48.592;8.868;2023-03-01T07:32:33;16.98;;;10.68;;
6828;SDS011;17930;48.592;8.868;2023-03-01T07:34:59;22.33;;;11.05;;
6828;SDS011;17930;48.592;8.868;2023-03-01T07:37:26;19.52;;;10.52;;
6828;SDS011;17930;48.592;8.868;2023-03-01T07:39:53;20.35;;;10.55;;
6828;SDS011;17930;48.592;8.868;2023-03-01T07:42:19;20.77;;;11.73;;
6828;SDS011;17930;48.592;8.868;2023-03-01T07:44:46;21.75;;;11.30;;
6828;SDS011;17930;48.592;8.868;2023-03-01T07:47:14;23.55;;;10.57;;
6828;SDS011;17930;48.592;8.868;2023-03-01T07:49:41;21.25;;;10.25;;
6828;SDS011;17930;48.592;8.868;2023-03-01T07:52:09;23.88;;;11.32;;
6828;SDS011;17930;48.592;8.868;2023-03-01T07:54:36;18.98;;;10.07;;
6828;SDS011;17930;48.592;8.868;2023-03-01T07:57:03;23.70;;;10.90;;
6828;SDS011;17930;48.592;8.868;2023-03-01T07:59:29;22.63;;;10.45;;
6828;SDS011;17930;48.592;8.868;2023-03-01T08:01:56;18.55;;;10.30;;
6828;SDS011;17930;48.592;8.868;2023-03-01T08:04:24;18.42;;;9.77;;
6828;SDS011;17930;48.592;8.868;2023-03-01T08:06:52;15.50;;;9.57;;
6828;SDS011;17930;48.592;8.868;2023-03-01T08:09:18;17.60;;;10.48;;
6828;SDS011;17930;48.592;8.868;2023-03-01T08:11:45;17.17;;;10.45;;
6828;SDS011;17930;48.592;8.868;2023-03-01T08:14:12;19.07;;;10.87;;
6828;SDS011;17930;48.592;8.868;2023-03-01T08:16:38;20.67;;;11.27;;
6828;SDS011;17930;48.592;8.868;2023-03-01T08:19:05;21.30;;;11.10;;
6828;SDS011;17930;48.592;8.868;2023-03-01T08:21:34;17.73;;;9.90;;
6828;SDS011;17930;48.592;8.868;2023-03-01T08:24:01;16.30;;;9.93;;
6828;SDS011;17930;48.592;8.868;2023-03-01T08:26:28;16.37;;;9.47;;
6828;SDS011;17930;48.592;8.868;2023-03-01T08:28:54;18.83;;;10.80;;
6828;SDS011;17930;48.592;8.868;2023-03-01T08:31:22;18.50;;;10.00;;
6828;SDS011;17930;48.592;8.868;2023-03-01T08:33:52;18.50;;;9.67;;
6828;SDS011;17930;48.592;8.868;2023-03-01T08:36:21;18.67;;;11.13;;
6828;SDS011;17930;48.592;8.868;2023-03-01T08:38:50;18.10;;;10.53;;
6828;SDS011;17930;48.592;8.868;2023-03-01T08:41:17;16.03;;;9.93;;
6828;SDS011;17930;48.592;8.868;2023-03-01T08:43:44;16.70;;;9.97;;
6828;SDS011;17930;48.592;8.868;2023-03-01T08:46:11;19.30;;;9.60;;
6828;SDS011;17930;48.592;8.868;2023-03-01T08:48:38;19.73;;;10.33;;
6828;SDS011;17930;48.592;8.868;2023-03-01T08:51:09;17.07;;;10.13;;
6828;SDS011;17930;48.592;8.868;2023-03-01T08:53:37;17.07;;;9.97;;
6828;SDS011;17930;48.592;8.868;2023-03-01T08:56:06;20.77;;;10.33;;
6828;SDS011;17930;48.592;8.868;2023-03-01T08:58:34;18.87;;;10.30;;
6828;SDS011;17930;48.592;8.868;2023-03-01T09:01:00;17.33;;;10.07;;
6828;SDS011;17930;48.592;8.868;2023-03-01T09:03:27;15.50;;;9.97;;
6828;SDS011;17930;48.592;8.868;2023-03-01T09:05:54;17.43;;;10.07;;
6828;SDS011;17930;48.592;8.868;2023-03-01T09:08:26;16.93;;;9.87;;
6828;SDS011;17930;48.592;8.868;2023-03-01T09:10:53;18.17;;;10.13;;
6828;SDS011;17930;48.592;8.868;2023-03-01T09:13:21;20.53;;;11.47;;
6828;SDS011;17930;48.592;8.868;2023-03-01T09:15:50;15.00;;;9.43;;
6828;SDS011;17930;48.592;8.868;2023-03-01T09:18:17;17.23;;;9.67;;
6828;SDS011;17930;48.592;8.868;2023-03-01T09:20:43;18.13;;;9.93;;
6828;SDS011;17930;48.592;8.868;2023-03-01T09:23:10;15.53;;;9.90;;
6828;SDS011;17930;48.592;8.868;2023-03-01T09:25:37;17.13;;;9.40;;
6828;SDS011;17930;48.592;8.868;2023-03-01T09:28:03;16.97;;;10.10;;
6828;SDS011;17930;48.592;8.868;2023-03-01T09:30:32;18.03;;;9.67;;
6828;SDS011;17930;48.592;8.868;2023-03-01T09:32:59;18.53;;;10.00;;
6828;SDS011;17930;48.592;8.868;2023-03-01T09:35:25;17.00;;;9.93;;
6828;SDS011;17930;48.592;8.868;2023-03-01T09:37:53;18.23;;;9.80;;
6828;SDS011;17930;48.592;8.868;2023-03-01T09:40:20;19.50;;;10.23;;
6828;SDS011;17930;48.592;8.868;2023-03-01T09:42:51;16.80;;;10.17;;
6828;SDS011;17930;48.592;8.868;2023-03-01T09:45:26;18.30;;;10.17;;
6828;SDS011;17930;48.592;8.868;2023-03-01T09:47:57;17.77;;;10.33;;
6828;SDS011;17930;48.592;8.868;2023-03-01T09:50:24;16.23;;;10.13;;
6828;SDS011;17930;48.592;8.868;2023-03-01T09:52:54;15.67;;;9.80;;
6828;SDS011;17930;48.592;8.868;2023-03-01T09:55:30;17.40;;;10.13;;
6828;SDS011;17930;48.592;8.868;2023-03-01T09:58:00;23.23;;;11.97;;
6828;SDS011;17930;48.592;8.868;2023-03-01T10:00:44;14.93;;;9.23;;
6828;SDS011;17930;48.592;8.868;2023-03-01T10:03:17;18.70;;;10.00;;
6828;SDS011;17930;48.592;8.868;2023-03-01T10:05:54;16.40;;;9.50;;
6828;SDS011;17930;48.592;8.868;2023-03-01T10:08:30;16.87;;;9.83;;
6828;SDS011;17930;48.592;8.868;2023-03-01T10:11:01;16.93;;;9.50;;
6828;SDS011;17930;48.592;8.868;2023-03-01T10:13:31;16.50;;;10.30;;
6828;SDS011;17930;48.592;8.868;2023-03-01T10:16:05;17.23;;;10.23;;
6828;SDS011;17930;48.592;8.868;2023-03-01T10:18:41;16.90;;;9.80;;
6828;SDS011;17930;48.592;8.868;2023-03-01T10:21:14;18.73;;;10.23;;
6828;SDS011;17930;48.592;8.868;2023-03-01T10:23:43;14.83;;;9.67;;
6828;SDS011;17930;48.592;8.868;2023-03-01T10:26:23;17.50;;;10.20;;
6828;SDS011;17930;48.592;8.868;2023-03-01T10:29:05;19.33;;;10.30;;
6828;SDS011;17930;48.592;8.868;2023-03-01T10:31:38;14.30;;;9.07;;
6828;SDS011;17930;48.592;8.868;2023-03-01T10:34:11;14.43;;;9.10;;
6828;SDS011;17930;48.592;8.868;2023-03-01T10:36:41;17.83;;;9.83;;
6828;SDS011;17930;48.592;8.868;2023-03-01T10:39:14;15.13;;;9.57;;
6828;SDS011;17930;48.592;8.868;2023-03-01T10:41:52;16.60;;;10.40;;
6828;SDS011;17930;48.592;8.868;2023-03-01T10:44:39;16.10;;;10.20;;
6828;SDS011;17930;48.592;8.868;2023-03-01T10:47:15;15.10;;;9.07;;
6828;SDS011;17930;48.592;8.868;2023-03-01T10:49:52;16.40;;;9.73;;
6828;SDS011;17930;48.592;8.868;2023-03-01T10:52:29;18.10;;;9.77;;
6828;SDS011;17930;48.592;8.868;2023-03-01T10:54:59;13.50;;;9.83;;
6828;SDS011;17930;48.592;8.868;2023-03-01T10:57:29;14.67;;;9.53;;
6828;SDS011;17930;48.592;8.868;2023-03-01T11:00:22;15.23;;;10.00;;
6828;SDS011;17930;48.592;8.868;2023-03-01T11:02:51;16.83;;;9.83;;
6828;SDS011;17930;48.592;8.868;2023-03-01T11:05:30;14.23;;;9.67;;
6828;SDS011;17930;48.592;8.868;2023-03-01T11:07:59;16.93;;;9.73;;
6828;SDS011;17930;48.592;8.868;2023-03-01T11:10:28;15.10;;;10.20;;
6828;SDS011;17930;48.592;8.868;2023-03-01T11:13:05;14.93;;;9.90;;
6828;SDS011;17930;48.592;8.868;2023-03-01T11:15:33;15.57;;;10.60;;
6828;SDS011;17930;48.592;8.868;2023-03-01T11:18:01;14.70;;;9.57;;
6828;SDS011;17930;48.592;8.868;2023-03-01T11:20:31;14.50;;;9.70;;
6828;SDS011;17930;48.592;8.868;2023-03-01T11:23:01;16.77;;;10.67;;
6828;SDS011;17930;48.592;8.868;2023-03-01T11:25:33;15.50;;;10.13;;
6828;SDS011;17930;48.592;8.868;2023-03-01T11:28:03;17.27;;;9.80;;
6828;SDS011;17930;48.592;8.868;2023-03-01T11:30:32;14.83;;;8.57;;
6828;SDS011;17930;48.592;8.868;2023-03-01T11:33:05;14.60;;;9.07;;
6828;SDS011;17930;48.592;8.868;2023-03-01T11:35:43;14.87;;;8.70;;
6828;SDS011;17930;48.592;8.868;2023-03-01T11:38:16;14.50;;;9.63;;
6828;SDS011;17930;48.592;8.868;2023-03-01T11:40:48;21.17;;;12.60;;
6828;SDS011;17930;48.592;8.868;2023-03-01T11:43:20;14.10;;;9.20;;
6828;SDS011;17930;48.592;8.868;2023-03-01T11:46:06;15.80;;;9.40;;
6828;SDS011;17930;48.592;8.868;2023-03-01T11:49:02;13.27;;;9.03;;
6828;SDS011;17930;48.592;8.868;2023-03-01T11:51:54;14.70;;;9.97;;
6828;SDS011;17930;48.592;8.868;2023-03-01T11:54:32;13.80;;;9.77;;
6828;SDS011;17930;48.592;8.868;2023-03-01T11:57:11;15.70;;;9.93;;
6828;SDS011;17930;48.592;8.868;2023-03-01T11:59:56;18.53;;;10.43;;
6828;SDS011;17930;48.592;8.868;2023-03-01T12:02:43;15.30;;;9.70;;
6828;SDS011;17930;48.592;8.868;2023-03-01T12:08:37;19.40;;;10.07;;
6828;SDS011;17930;48.592;8.868;2023-03-01T12:11:15;16.90;;;9.73;;
6828;SDS011;17930;48.592;8.868;2023-03-01T12:13:59;15.23;;;9.77;;
6828;SDS011;17930;48.592;8.868;2023-03-01T12:19:52;13.40;;;9.00;;
6828;SDS011;17930;48.592;8.868;2023-03-01T12:22:31;14.87;;;9.80;;
6828;SDS011;17930;48.592;8.868;2023-03-01T12:25:06;14.03;;;9.13;;
6828;SDS011;17930;48.592;8.868;2023-03-01T12:27:49;12.23;;;8.70;;
6828;SDS011;17930;48.592;8.868;2023-03-01T12:30:37;14.27;;;9.07;;
6828;SDS011;17930;48.592;8.868;2023-03-01T12:33:17;14.47;;;9.13;;
6828;SDS011;17930;48.592;8.868;2023-03-01T12:35:54;16.23;;;9.93;;
6828;SDS011;17930;48.592;8.868;2023-03-01T12:38:37;12.97;;;9.17;;
6828;SDS011;17930;48.592;8.868;2023-03-01T12:41:14;12.03;;;9.17;;
6828;SDS011;17930;48.592;8.868;2023-03-01T12:44:06;13.97;;;9.33;;
6828;SDS011;17930;48.592;8.868;2023-03-01T12:46:47;14.67;;;9.30;;
6828;SDS011;17930;48.592;8.868;2023-03-01T12:49:26;22.43;;;10.27;;
6828;SDS011;17930;48.592;8.868;2023-03-01T12:51:58;13.03;;;8.90;;
6828;SDS011;17930;48.592;8.868;2023-03-01T12:54:29;13.93;;;9.70;;
6828;SDS011;17930;48.592;8.868;2023-03-01T12:57:02;13.50;;;9.77;;
6828;SDS011;17930;48.592;8.868;2023-03-01T12:59:36;14.07;;;9.50;;
6828;SDS011;17930;48.592;8.868;2023-03-01T13:02:11;18.17;;;10.33;;
6828;SDS011;17930;48.592;8.868;2023-03-01T13:04:51;21.07;;;10.37;;
6828;SDS011;17930;48.592;8.868;2023-03-01T13:07:28;15.20;;;10.43;;
6828;SDS011;17930;48.592;8.868;2023-03-01T13:10:14;15.73;;;9.43;;
6828;SDS011;17930;48.592;8.868;2023-03-01T13:12:50;14.23;;;8.40;;
6828;SDS011;17930;48.592;8.868;2023-03-01T13:15:25;14.03;;;9.60;;
6828;SDS011;17930;48.592;8.868;2023-03-01T13:17:57;14.57;;;9.87;;
6828;SDS011;17930;48.592;8.868;2023-03-01T13:20:25;13.77;;;9.53;;
6828;SDS011;17930;48.592;8.868;2023-03-01T13:23:07;15.53;;;9.27;;
6828;SDS011;17930;48.592;8.868;2023-03-01T13:34:40;17.40;;;10.07;;
6828;SDS011;17930;48.592;8.868;2023-03-01T13:37:30;13.33;;;8.97;;
6828;SDS011;17930;48.592;8.868;2023-03-01T13:40:00;16.07;;;9.83;;
6828;SDS011;17930;48.592;8.868;2023-03-01T13:42:31;11.90;;;9.10;;
6828;SDS011;17930;48.592;8.868;2023-03-01T13:45:31;15.27;;;9.53;;
6828;SDS011;17930;48.592;8.868;2023-03-01T13:48:02;16.17;;;10.10;;
6828;SDS011;17930;48.592;8.868;2023-03-01T13:50:36;12.60;;;9.17;;
6828;SDS011;17930;48.592;8.868;2023-03-01T13:53:12;14.03;;;9.07;;
6828;SDS011;17930;48.592;8.868;2023-03-01T13:55:43;13.77;;;8.60;;
6828;SDS011;17930;48.592;8.868;2023-03-01T13:58:15;15.10;;;9.07;;
6828;SDS011;17930;48.592;8.868;2023-03-01T14:00:54;15.83;;;9.43;;
6828;SDS011;17930;48.592;8.868;2023-03-01T14:03:22;14.47;;;8.53;;
6828;SDS011;17930;48.592;8.868;2023-03-01T14:05:59;12.63;;;7.93;;
6828;SDS011;17930;48.592;8.868;2023-03-01T14:08:29;12.20;;;8.03;;
6828;SDS011;17930;48.592;8.868;2023-03-01T14:11:04;18.77;;;8.80;;
6828;SDS011;17930;48.592;8.868;2023-03-01T14:17:03;11.67;;;8.10;;
6828;SDS011;17930;48.592;8.868;2023-03-01T14:19:42;14.07;;;8.07;;
6828;SDS011;17930;48.592;8.868;2023-03-01T14:22:13;16.07;;;9.13;;
6828;SDS011;17930;48.592;8.868;2023-03-01T14:24:46;12.97;;;8.67;;
6828;SDS011;17930;48.592;8.868;2023-03-01T14:27:17;13.17;;;7.97;;
6828;SDS011;17930;48.592;8.868;2023-03-01T14:29:45;15.60;;;9.43;;
6828;SDS011;17930;48.592;8.868;2023-03-01T14:32:23;13.07;;;8.20;;
6828;SDS011;17930;48.592;8.868;2023-03-01T14:34:51;12.90;;;8.23;;
6828;SDS011;17930;48.592;8.868;2023-03-01T14:37:20;11.20;;;7.13;;
6828;SDS011;17930;48.592;8.868;2023-03-01T14:39:53;13.33;;;8.07;;
6828;SDS011;17930;48.592;8.868;2023-03-01T14:42:25;13.03;;;7.77;;
6828;SDS011;17930;48.592;8.868;2023-03-01T14:44:55;13.93;;;8.33;;
6828;SDS011;17930;48.592;8.868;2023-03-01T14:47:27;16.60;;;8.43;;
6828;SDS011;17930;48.592;8.868;2023-03-01T14:49:57;19.00;;;9.40;;
6828;SDS011;17930;48.592;8.868;2023-03-01T14:52:28;18.70;;;10.00;;
6828;SDS011;17930;48.592;8.868;2023-03-01T14:55:04;13.53;;;9.93;;
6828;SDS011;17930;48.592;8.868;2023-03-01T14:57:33;14.33;;;8.80;;
6828;SDS011;17930;48.592;8.868;2023-03-01T15:00:00;15.60;;;8.37;;
6828;SDS011;17930;48.592;8.868;2023-03-01T15:02:35;15.50;;;9.00;;
6828;SDS011;17930;48.592;8.868;2023-03-01T15:05:05;14.10;;;8.83;;
6828;SDS011;17930;48.592;8.868;2023-03-01T15:07:35;15.37;;;8.83;;
6828;SDS011;17930;48.592;8.868;2023-03-01T15:10:05;19.70;;;9.50;;
6828;SDS011;17930;48.592;8.868;2023-03-01T15:12:38;17.70;;;9.77;;
6828;SDS011;17930;48.592;8.868;2023-03-01T15:18:14;17.23;;;9.97;;
6828;SDS011;17930;48.592;8.868;2023-03-01T15:20:44;18.07;;;9.60;;
6828;SDS011;17930;48.592;8.868;2023-03-01T15:23:17;14.63;;;9.33;;
6828;SDS011;17930;48.592;8.868;2023-03-01T15:25:48;16.63;;;9.47;;
6828;SDS011;17930;48.592;8.868;2023-03-01T15:28:22;14.60;;;9.03;;